Time;durP1;ratioP1;P1;durP2;ratioP2;P2;SDS_P1;SDS_P2;PMS_P1;PMS_P2;Temp;Humidity;BMP_temperature;BMP_pressure;BME280_temperature;BME280_humidity;BME280_pressure;Samples;Min_cycle;Max_cycle;Signal;HPM_P1;HPM_P2
2022/12/23 00:02:27;;;;;;;0.73;0.50;;;10.90;67.00;;;;;;20868;6755;116927;-72
2022/12/23 00:05:00;;;;;;;1.00;0.90;;;10.80;67.30;;;;;;20516;6770;308624;-74
2022/12/23 00:07:38;;;;;;;0.65;0.60;;;11.00;67.30;;;;;;20602;6768;311372;-72
2022/12/23 00:10:14;;;;;;;2.50;0.60;;;11.50;66.60;;;;;;20576;6771;277277;-72
2022/12/23 00:15:42;;;;;;;2.25;0.70;;;11.80;65.00;;;;;;20542;6742;278492;-73
2022/12/23 00:18:18;;;;;;;1.70;0.70;;;11.90;65.20;;;;;;20663;6755;278849;-73
2022/12/23 00:21:00;;;;;;;2.87;0.70;;;12.10;64.60;;;;;;20621;6757;335581;-73
2022/12/23 00:23:36;;;;;;;0.77;0.60;;;12.30;64.00;;;;;;20888;6746;117120;-73
2022/12/23 00:26:12;;;;;;;1.60;0.50;;;12.10;64.00;;;;;;20704;6807;117288;-73
2022/12/23 00:28:48;;;;;;;1.10;0.50;;;11.80;64.90;;;;;;20655;6757;306941;-73
2022/12/23 00:31:25;;;;;;;0.80;0.30;;;11.90;65.90;;;;;;20818;6762;116960;-74
2022/12/23 00:34:00;;;;;;;0.53;0.40;;;11.80;65.80;;;;;;20853;6753;120940;-73
2022/12/23 00:36:37;;;;;;;0.43;0.40;;;11.60;66.50;;;;;;20857;6753;117052;-73
2022/12/23 00:45:14;;;;;;;1.63;0.50;;;11.10;68.50;;;;;;20795;6739;118413;-74
2022/12/23 00:50:34;;;;;;;0.93;0.50;;;10.90;69.40;;;;;;20680;6747;334906;-73
2022/12/23 00:53:10;;;;;;;1.20;0.70;;;11.20;70.10;;;;;;20652;6747;282424;-72
2022/12/23 00:55:46;;;;;;;0.90;0.60;;;12.00;68.30;;;;;;20476;6757;309147;-72
2022/12/23 00:58:21;;;;;;;1.73;0.45;;;12.00;67.90;;;;;;20691;6733;307751;-72
2022/12/23 01:06:48;;;;;;;0.75;0.50;;;12.70;65.60;;;;;;20701;6732;337671;-73
2022/12/23 01:09:24;;;;;;;1.03;0.40;;;12.80;64.50;;;;;;20688;6732;305156;-73
2022/12/23 01:11:59;;;;;;;0.90;0.50;;;12.90;64.20;;;;;;20703;6732;308101;-73
2022/12/23 01:14:35;;;;;;;0.40;0.30;;;13.00;63.80;;;;;;20893;6725;116738;-73
2022/12/23 01:17:11;;;;;;;0.85;0.40;;;12.70;64.80;;;;;;20722;6725;276261;-73
2022/12/23 01:19:47;;;;;;;0.60;0.30;;;12.60;64.60;;;;;;20949;6725;117421;-73
2022/12/23 01:22:23;;;;;;;0.70;0.40;;;12.50;65.70;;;;;;20741;6725;305478;-73
2022/12/23 01:24:59;;;;;;;0.40;0.40;;;12.50;65.60;;;;;;20874;6725;117277;-73
2022/12/23 01:27:38;;;;;;;0.60;0.40;;;12.40;65.70;;;;;;20744;6725;277215;-74
2022/12/23 01:30:10;;;;;;;0.90;0.50;;;12.40;66.30;;;;;;20733;6725;307947;-74
2022/12/23 01:32:47;;;;;;;0.88;0.40;;;12.60;65.80;;;;;;20717;6732;334884;-74
2022/12/23 01:35:22;;;;;;;1.50;0.33;;;12.80;65.30;;;;;;20788;6736;117247;-74
2022/12/23 01:37:58;;;;;;;0.50;0.30;;;12.60;65.20;;;;;;20873;6751;116970;-75
2022/12/23 01:40:33;;;;;;;1.53;0.50;;;12.30;66.10;;;;;;20713;6733;325471;-74
2022/12/23 01:43:16;;;;;;;2.30;0.50;;;12.30;67.00;;;;;;20682;6739;305042;-75
2022/12/23 01:45:52;;;;;;;0.60;0.50;;;12.50;66.50;;;;;;20675;6765;117644;-74
2022/12/23 01:48:27;;;;;;;0.50;0.50;;;12.40;66.30;;;;;;20871;6753;116998;-74
2022/12/23 01:51:03;;;;;;;1.52;0.50;;;12.10;67.00;;;;;;20627;6750;306015;-75
2022/12/23 01:53:42;;;;;;;0.70;0.50;;;12.20;67.80;;;;;;20653;6756;279439;-75
2022/12/23 01:56:17;;;;;;;0.90;0.40;;;12.40;67.10;;;;;;20601;6768;277478;-74
2022/12/23 01:59:03;;;;;;;0.47;0.37;;;12.80;65.70;;;;;;20662;6749;277526;-74
2022/12/23 02:04:35;;;;;;;1.20;0.57;;;12.70;65.80;;;;;;20572;6761;281475;-73
2022/12/23 02:09:56;;;;;;;0.40;0.40;;;12.50;66.40;;;;;;19751;7128;119380;-73
2022/12/23 02:12:38;;;;;;;2.00;0.70;;;12.20;67.40;;;;;;20580;6777;310013;-72
2022/12/23 02:18:43;;;;;;;0.67;0.50;;;12.50;67.30;;;;;;20916;6738;117913;-73
2022/12/23 02:21:58;;;;;;;1.40;0.50;;;12.40;67.30;;;;;;20628;6751;305734;-74
2022/12/23 02:24:37;;;;;;;0.43;0.40;;;12.40;67.60;;;;;;20822;6747;120173;-74
2022/12/23 02:27:15;;;;;;;0.40;0.40;;;12.30;67.70;;;;;;20641;6753;317791;-74
2022/12/23 02:30:17;;;;;;;1.10;0.60;;;12.30;68.20;;;;;;20670;6747;306026;-74
2022/12/23 02:32:52;;;;;;;2.77;0.60;;;12.60;67.70;;;;;;20597;6772;281840;-74
2022/12/23 02:35:50;;;;;;;0.62;0.40;;;12.80;66.70;;;;;;20203;6878;308721;-74
2022/12/23 02:38:30;;;;;;;0.50;0.50;;;12.90;65.90;;;;;;20859;6762;117069;-74
2022/12/23 02:41:05;;;;;;;0.93;0.40;;;12.70;66.20;;;;;;20812;6762;120372;-75
2022/12/23 02:43:41;;;;;;;0.50;0.40;;;12.40;67.40;;;;;;20834;6762;117232;-74
2022/12/23 02:46:17;;;;;;;0.47;0.47;;;12.10;68.40;;;;;;20840;6762;117131;-74
2022/12/23 02:49:02;;;;;;;1.02;0.52;;;11.80;69.40;;;;;;20615;6762;307493;-74
2022/12/23 02:51:38;;;;;;;1.23;0.40;;;12.00;69.70;;;;;;20814;6768;117257;-74
2022/12/23 02:54:14;;;;;;;1.67;0.50;;;12.00;69.70;;;;;;20549;6772;291688;-74
2022/12/23 02:56:49;;;;;;;1.13;0.40;;;12.20;70.00;;;;;;20821;6768;118347;-74
2022/12/23 02:59:25;;;;;;;1.77;0.53;;;12.10;69.40;;;;;;20793;6768;117159;-75
2022/12/23 03:02:00;;;;;;;0.53;0.30;;;11.90;70.00;;;;;;20869;6753;120289;-74
2022/12/23 03:04:37;;;;;;;0.30;0.30;;;11.80;71.00;;;;;;20808;6753;117000;-71
2022/12/23 03:07:11;;;;;;;0.60;0.40;;;11.60;71.80;;;;;;20706;6739;283874;-75
2022/12/23 03:10:04;;;;;;;0.40;0.40;;;11.90;72.70;;;;;;20718;6733;279957;-75
2022/12/23 03:12:46;;;;;;;1.37;0.60;;;12.30;71.70;;;;;;20912;6739;120818;-73
2022/12/23 03:15:31;;;;;;;1.70;0.70;;;12.20;70.50;;;;;;20455;6753;278858;-74
2022/12/23 03:18:16;;;;;;;0.83;0.30;;;12.40;71.10;;;;;;20834;6753;117009;-74
2022/12/23 03:20:49;;;;;;;0.30;0.30;;;12.30;70.60;;;;;;20833;6762;118309;-73
2022/12/23 03:23:26;;;;;;;0.40;0.40;;;12.10;71.40;;;;;;20841;6751;122070;-74
2022/12/23 03:26:18;;;;;;;0.47;0.40;;;11.90;72.40;;;;;;20570;6732;307038;-74
2022/12/23 03:29:00;;;;;;;0.73;0.40;;;12.10;72.90;;;;;;20671;6747;320797;-74
2022/12/23 03:31:35;;;;;;;0.85;0.40;;;12.50;71.50;;;;;;20570;6777;279779;-74
2022/12/23 03:34:12;;;;;;;0.43;0.20;;;12.70;69.70;;;;;;20803;6764;116978;-73
2022/12/23 03:36:47;;;;;;;0.80;0.30;;;12.70;69.70;;;;;;20720;6732;304926;-74
2022/12/23 03:39:23;;;;;;;0.30;0.30;;;12.80;70.50;;;;;;20702;6732;278179;-73
2022/12/23 03:42:02;;;;;;;0.85;0.40;;;13.20;68.90;;;;;;20711;6732;276103;-74
2022/12/23 03:44:38;;;;;;;0.40;0.30;;;13.20;68.90;;;;;;20856;6732;117475;-73
2022/12/23 03:47:25;;;;;;;0.30;0.30;;;13.00;69.50;;;;;;20646;6747;339026;-74
2022/12/23 03:50:07;;;;;;;0.97;0.27;;;13.00;69.40;;;;;;20881;6747;117027;-74
2022/12/23 03:52:46;;;;;;;0.33;0.23;;;12.90;69.70;;;;;;20827;6766;117545;-74
2022/12/23 03:55:24;;;;;;;2.20;0.50;;;12.60;70.60;;;;;;20526;6746;311224;-74
2022/12/23 03:58:09;;;;;;;1.10;0.50;;;12.70;70.90;;;;;;20620;6762;307274;-73
2022/12/23 04:00:47;;;;;;;0.30;0.30;;;13.00;70.60;;;;;;20878;6753;121244;-74
2022/12/23 04:03:30;;;;;;;0.50;0.50;;;12.90;69.60;;;;;;20656;6751;305262;-74
2022/12/23 04:06:06;;;;;;;1.00;0.60;;;12.90;69.60;;;;;;20507;6751;296064;-74
2022/12/23 04:08:41;;;;;;;1.30;0.60;;;13.10;68.80;;;;;;20822;6764;117024;-74
2022/12/23 04:11:18;;;;;;;1.10;0.60;;;13.00;68.70;;;;;;20712;6733;306578;-74
2022/12/23 04:13:54;;;;;;;0.65;0.60;;;13.00;68.90;;;;;;20657;6748;309298;-73
2022/12/23 04:16:30;;;;;;;0.43;0.43;;;13.20;68.00;;;;;;20883;6748;116975;-73
2022/12/23 04:19:05;;;;;;;0.62;0.60;;;13.10;68.10;;;;;;20723;6733;335679;-76
2022/12/23 04:21:41;;;;;;;1.87;0.50;;;13.10;68.40;;;;;;20849;6751;117186;-74
2022/12/23 04:24:16;;;;;;;0.43;0.43;;;12.90;68.50;;;;;;20711;6725;278532;-78
2022/12/23 04:26:52;;;;;;;0.70;0.60;;;13.00;68.90;;;;;;20737;6725;289892;-76
2022/12/23 04:29:29;;;;;;;0.57;0.50;;;13.20;68.10;;;;;;20943;6725;121680;-77
2022/12/23 04:32:04;;;;;;;0.90;0.77;;;13.00;68.10;;;;;;20743;6725;304347;-76
2022/12/23 04:34:41;;;;;;;0.70;0.50;;;12.90;68.50;;;;;;20889;6725;117274;-74
2022/12/23 04:37:16;;;;;;;1.03;0.60;;;12.90;68.50;;;;;;20937;6725;117692;-79
2022/12/23 04:39:52;;;;;;;0.60;0.60;;;12.60;69.50;;;;;;20820;6765;117058;-77
2022/12/23 04:42:33;;;;;;;1.37;0.60;;;12.40;70.60;;;;;;20879;6747;116979;-77
2022/12/23 04:45:03;;;;;;;0.40;0.40;;;12.20;71.60;;;;;;20751;6753;117279;-78
2022/12/23 04:47:39;;;;;;;0.60;0.60;;;12.10;72.40;;;;;;20646;6753;277263;-76
2022/12/23 04:50:15;;;;;;;1.50;0.50;;;12.70;70.70;;;;;;20646;6753;334954;-76
2022/12/23 04:52:51;;;;;;;0.53;0.50;;;12.60;69.90;;;;;;20890;6750;119443;-75
2022/12/23 04:55:27;;;;;;;0.67;0.67;;;12.60;69.90;;;;;;20720;6758;122142;-75
2022/12/23 04:58:03;;;;;;;1.90;0.57;;;12.40;70.70;;;;;;20826;6765;117108;-75
2022/12/23 05:00:39;;;;;;;0.30;0.30;;;12.00;72.80;;;;;;20824;6762;120321;-75
2022/12/23 05:03:14;;;;;;;2.70;0.40;;;12.00;72.80;;;;;;20590;6768;309882;-73
2022/12/23 05:05:50;;;;;;;0.30;0.30;;;12.20;73.40;;;;;;20696;6768;118507;-72
2022/12/23 05:08:26;;;;;;;0.43;0.20;;;12.30;72.80;;;;;;20909;6738;117302;-72
2022/12/23 05:11:01;;;;;;;0.30;0.30;;;12.20;73.40;;;;;;20778;6770;118214;-75
2022/12/23 05:13:37;;;;;;;0.93;0.33;;;12.10;74.20;;;;;;20842;6759;117195;-74
2022/12/23 05:16:12;;;;;;;1.33;0.40;;;12.00;74.60;;;;;;20672;6752;278047;-72
2022/12/23 05:18:50;;;;;;;0.40;0.40;;;12.20;74.50;;;;;;20813;6763;119753;-73
2022/12/23 05:21:25;;;;;;;0.43;0.37;;;12.30;73.50;;;;;;20637;6752;306156;-72
2022/12/23 05:24:01;;;;;;;0.60;0.60;;;12.50;73.10;;;;;;20805;6752;117257;-72
2022/12/23 05:26:36;;;;;;;0.50;0.50;;;12.50;72.40;;;;;;20853;6757;117565;-72
2022/12/23 05:29:12;;;;;;;1.20;0.27;;;12.30;73.00;;;;;;20766;6765;121088;-72
2022/12/23 05:31:48;;;;;;;0.40;0.40;;;12.20;73.90;;;;;;20578;6762;338454;-72
2022/12/23 05:34:23;;;;;;;0.40;0.40;;;12.40;73.90;;;;;;20544;6762;309303;-73
2022/12/23 05:36:59;;;;;;;0.33;0.33;;;13.10;70.80;;;;;;20583;6769;309014;-73
2022/12/23 05:39:35;;;;;;;0.47;0.47;;;13.00;70.70;;;;;;20833;6736;118256;-72
2022/12/23 05:42:11;;;;;;;0.43;0.30;;;13.00;70.60;;;;;;20865;6747;117163;-72
2022/12/23 05:44:46;;;;;;;0.50;0.40;;;12.70;71.50;;;;;;20771;6753;117089;-72
2022/12/23 05:47:22;;;;;;;0.30;0.30;;;12.50;72.70;;;;;;20857;6747;117377;-73
2022/12/23 05:49:57;;;;;;;0.73;0.60;;;12.30;73.50;;;;;;20642;6753;310172;-72
2022/12/23 05:52:33;;;;;;;0.40;0.40;;;12.50;73.50;;;;;;20835;6762;118046;-72
2022/12/23 05:55:12;;;;;;;0.30;0.30;;;12.50;72.90;;;;;;20672;6771;117806;-72
2022/12/23 05:57:44;;;;;;;1.60;0.50;;;12.40;73.60;;;;;;20676;6747;335917;-73
2022/12/23 06:00:20;;;;;;;0.30;0.30;;;12.60;73.80;;;;;;20855;6753;118075;-72
2022/12/23 06:02:55;;;;;;;0.20;0.20;;;12.60;73.10;;;;;;20904;6747;117501;-72
2022/12/23 06:05:37;;;;;;;0.50;0.50;;;12.50;73.70;;;;;;20598;6747;123097;-72
2022/12/23 06:08:11;;;;;;;0.43;0.43;;;12.50;74.20;;;;;;20662;6732;304988;-73
2022/12/23 06:10:44;;;;;;;0.60;0.40;;;12.90;72.50;;;;;;20674;6747;276636;-72
2022/12/23 06:13:21;;;;;;;0.50;0.50;;;12.90;72.40;;;;;;20626;6753;305820;-73
2022/12/23 06:15:59;;;;;;;0.93;0.40;;;13.30;70.80;;;;;;20731;6756;117394;-72
2022/12/23 06:18:32;;;;;;;0.60;0.40;;;13.20;70.40;;;;;;20689;6747;334553;-73
2022/12/23 06:21:08;;;;;;;0.30;0.30;;;13.30;70.40;;;;;;20836;6751;117040;-73
2022/12/23 06:23:46;;;;;;;2.20;0.45;;;13.20;70.00;;;;;;20596;6766;337216;-73
2022/12/23 06:26:21;;;;;;;0.50;0.50;;;13.20;69.90;;;;;;20880;6747;117021;-73
2022/12/23 06:28:56;;;;;;;1.80;0.45;;;13.10;69.60;;;;;;20722;6733;278988;-73
2022/12/23 06:31:32;;;;;;;0.70;0.40;;;13.10;69.50;;;;;;20908;6732;121228;-73
2022/12/23 06:34:07;;;;;;;0.40;0.40;;;12.90;69.30;;;;;;20901;6733;118922;-72
2022/12/23 06:36:43;;;;;;;0.40;0.40;;;12.60;70.20;;;;;;20814;6765;122119;-72
2022/12/23 06:39:20;;;;;;;0.50;0.33;;;12.30;71.40;;;;;;20797;6765;117256;-75
2022/12/23 06:41:55;;;;;;;0.37;0.27;;;12.10;72.60;;;;;;20850;6757;117102;-73
2022/12/23 06:44:32;;;;;;;0.40;0.37;;;12.20;74.10;;;;;;20565;6762;278581;-73
2022/12/23 06:47:07;;;;;;;0.43;0.37;;;12.20;74.10;;;;;;20801;6766;117320;-72
2022/12/23 06:49:43;;;;;;;0.40;0.40;;;12.20;73.50;;;;;;20927;6733;117331;-73
2022/12/23 06:52:21;;;;;;;1.00;0.50;;;12.30;74.60;;;;;;20733;6725;335954;-73
2022/12/23 06:54:55;;;;;;;0.37;0.37;;;12.30;74.50;;;;;;20874;6725;117264;-73
2022/12/23 06:57:30;;;;;;;0.55;0.40;;;12.40;73.80;;;;;;20728;6725;275489;-73
2022/12/23 07:00:07;;;;;;;0.50;0.30;;;12.90;72.20;;;;;;20749;6725;276702;-73
2022/12/23 07:02:43;;;;;;;0.50;0.47;;;12.90;72.20;;;;;;20738;6725;306563;-74
2022/12/23 07:05:18;;;;;;;0.33;0.33;;;13.20;70.70;;;;;;20824;6725;117136;-74
2022/12/23 07:07:54;;;;;;;0.40;0.40;;;13.20;70.40;;;;;;20706;6742;276506;-73
2022/12/23 07:10:30;;;;;;;0.87;0.33;;;13.10;70.20;;;;;;20869;6747;117083;-74
2022/12/23 07:13:06;;;;;;;0.77;0.60;;;13.10;70.40;;;;;;20892;6738;117318;-74
2022/12/23 07:15:41;;;;;;;1.33;0.40;;;12.80;71.30;;;;;;20656;6770;117478;-74
2022/12/23 07:18:18;;;;;;;0.77;0.70;;;12.70;71.90;;;;;;20590;6772;305991;-73
2022/12/23 07:20:53;;;;;;;2.13;0.70;;;12.70;71.80;;;;;;20808;6764;119097;-73
2022/12/23 07:23:29;;;;;;;1.60;0.70;;;12.70;71.50;;;;;;20789;6764;117026;-73
2022/12/23 07:26:05;;;;;;;1.00;0.90;;;12.50;72.20;;;;;;20665;6764;117829;-74
2022/12/23 07:28:40;;;;;;;3.47;1.93;;;12.30;73.00;;;;;;20898;6736;117529;-73
2022/12/23 07:31:16;;;;;;;2.00;1.70;;;12.20;73.80;;;;;;20668;6736;276228;-74
2022/12/23 07:33:51;;;;;;;1.23;0.83;;;12.40;73.40;;;;;;20883;6740;122269;-73
2022/12/23 07:36:27;;;;;;;1.13;0.70;;;12.50;72.80;;;;;;20908;6736;117955;-73
2022/12/23 07:39:03;;;;;;;2.70;1.30;;;12.40;73.40;;;;;;20679;6736;327787;-73
2022/12/23 07:41:38;;;;;;;1.33;1.00;;;12.50;73.20;;;;;;20593;6762;307165;-72
2022/12/23 07:44:14;;;;;;;0.70;0.70;;;12.90;71.80;;;;;;20864;6739;116986;-74
2022/12/23 07:46:49;;;;;;;1.40;1.00;;;12.90;71.40;;;;;;20888;6739;117652;-71
2022/12/23 07:49:25;;;;;;;1.00;1.00;;;12.80;72.30;;;;;;20816;6753;117456;-73
2022/12/23 07:52:01;;;;;;;0.90;0.90;;;12.60;73.40;;;;;;20839;6753;117612;-73
2022/12/23 07:54:36;;;;;;;2.70;1.10;;;12.50;74.10;;;;;;20528;6765;308380;-70
2022/12/23 07:57:12;;;;;;;1.33;1.10;;;12.70;73.60;;;;;;20615;6753;277582;-71
2022/12/23 07:59:47;;;;;;;1.10;1.00;;;13.10;71.60;;;;;;20818;6762;117776;-70
2022/12/23 08:02:23;;;;;;;12.93;11.93;;;13.10;71.10;;;;;;20837;6757;120268;-70
2022/12/23 08:04:58;;;;;;;3.92;3.72;;;12.90;71.90;;;;;;20545;6761;280678;-72
2022/12/23 08:07:34;;;;;;;2.17;2.07;;;13.00;71.70;;;;;;20787;6773;120269;-72
2022/12/23 08:10:10;;;;;;;3.00;2.90;;;13.00;71.30;;;;;;20772;6777;117156;-71
2022/12/23 08:12:45;;;;;;;5.57;5.27;;;12.80;72.10;;;;;;20829;6762;118560;-74
2022/12/23 08:15:21;;;;;;;11.45;10.65;;;12.60;73.10;;;;;;20529;6747;283066;-71
2022/12/23 08:17:56;;;;;;;5.80;5.50;;;12.80;72.90;;;;;;20614;6762;308990;-70
2022/12/23 08:20:32;;;;;;;3.50;3.20;;;13.20;71.60;;;;;;20716;6732;280474;-70
2022/12/23 08:23:08;;;;;;;2.92;2.55;;;13.50;70.10;;;;;;20697;6732;306196;-70
2022/12/23 08:25:43;;;;;;;1.70;1.70;;;13.70;69.00;;;;;;20785;6732;117382;-73
2022/12/23 08:28:19;;;;;;;3.05;2.90;;;13.60;69.70;;;;;;20719;6732;277540;-70
2022/12/23 08:30:56;;;;;;;2.63;2.53;;;13.60;69.60;;;;;;20660;6747;308195;-74
2022/12/23 08:33:34;;;;;;;2.30;2.20;;;13.80;69.10;;;;;;20825;6762;117628;-71
2022/12/23 08:36:09;;;;;;;2.53;1.73;;;13.70;69.30;;;;;;20754;6789;117781;-71
2022/12/23 08:38:44;;;;;;;2.55;2.35;;;13.50;70.50;;;;;;20672;6747;279684;-70
2022/12/23 08:41:20;;;;;;;2.87;1.30;;;13.50;70.80;;;;;;20944;6732;123574;-70
2022/12/23 08:43:57;;;;;;;7.03;6.45;;;13.50;70.80;;;;;;20629;6749;339476;-75
2022/12/23 08:46:33;;;;;;;6.57;4.40;;;13.60;70.50;;;;;;20858;6747;117109;-73
2022/12/23 08:49:08;;;;;;;51.97;33.10;;;13.50;70.20;;;;;;20900;6733;117524;-73
2022/12/23 08:51:45;;;;;;;7.57;6.18;;;13.30;71.10;;;;;;20585;6768;282092;-71
2022/12/23 08:54:22;;;;;;;4.47;3.63;;;13.40;71.30;;;;;;20809;6753;117397;-70
2022/12/23 08:56:55;;;;;;;25.75;15.40;;;13.30;71.00;;;;;;20577;6772;337465;-70
2022/12/23 08:59:31;;;;;;;15.40;8.93;;;13.70;69.80;;;;;;20566;6771;308316;-72
2022/12/23 09:02:07;;;;;;;25.60;18.58;;;13.70;69.30;;;;;;20643;6740;333752;-71
2022/12/23 09:04:43;;;;;;;15.57;13.68;;;13.90;68.50;;;;;;20589;6751;279755;-70
2022/12/23 09:07:18;;;;;;;20.97;19.17;;;14.10;67.80;;;;;;20538;6773;306157;-70
2022/12/23 09:09:54;;;;;;;19.70;16.70;;;14.20;67.20;;;;;;20790;6765;117936;-73
2022/12/23 09:12:29;;;;;;;18.13;14.97;;;14.00;67.70;;;;;;20793;6767;117313;-72
2022/12/23 09:15:06;;;;;;;13.35;11.07;;;13.70;69.70;;;;;;20484;6757;309120;-71
2022/12/23 09:17:45;;;;;;;5.50;5.00;;;13.70;69.70;;;;;;20503;6766;309360;-71
2022/12/23 09:20:17;;;;;;;35.93;29.40;;;13.90;69.00;;;;;;20787;6766;118095;-71
2022/12/23 09:22:53;;;;;;;20.20;18.13;;;13.80;69.00;;;;;;20821;6754;121268;-71
2022/12/23 09:25:29;;;;;;;9.40;8.70;;;13.30;71.30;;;;;;20671;6760;118762;-69
2022/12/23 09:28:05;;;;;;;3.03;2.93;;;13.30;71.30;;;;;;20833;6759;117022;-67
2022/12/23 09:30:40;;;;;;;3.77;3.57;;;13.10;72.30;;;;;;20833;6757;117496;-69
2022/12/23 09:33:16;;;;;;;5.47;5.18;;;13.00;73.30;;;;;;20661;6742;306217;-68
2022/12/23 09:35:52;;;;;;;3.60;3.40;;;13.20;74.00;;;;;;20435;6762;279995;-70
2022/12/23 09:38:28;;;;;;;2.50;2.40;;;13.90;71.10;;;;;;20655;6751;280018;-71
2022/12/23 09:41:17;;;;;;;1.50;1.40;;;13.90;71.00;;;;;;20619;6747;305400;-71
2022/12/23 09:44:09;;;;;;;4.47;4.07;;;14.20;70.10;;;;;;20619;6753;307184;-73
2022/12/23 09:46:44;;;;;;;10.63;9.63;;;14.40;68.40;;;;;;20861;6753;117825;-74
2022/12/23 09:49:30;;;;;;;;;;;;;;;;;;;;;
2022/12/23 09:51:55;;;;;;;10.37;9.60;;;13.90;70.20;;;;;;20877;6738;117670;-73
2022/12/23 09:54:41;;;;;;;7.20;6.80;;;13.60;71.60;;;;;;20614;6747;309546;-74
2022/12/23 09:57:18;;;;;;;8.60;8.10;;;13.70;71.80;;;;;;20905;6732;127068;-75
2022/12/23 10:00:10;;;;;;;6.23;4.30;;;13.70;71.80;;;;;;20921;6739;116993;-73
2022/12/23 10:02:55;;;;;;;5.17;4.87;;;13.60;73.20;;;;;;20669;6747;277508;-74
2022/12/23 10:06:10;;;;;;;3.87;3.67;;;13.80;72.30;;;;;;20488;6757;298359;-73
2022/12/23 10:08:45;;;;;;;3.00;2.90;;;14.10;70.80;;;;;;20564;6777;307734;-74
2022/12/23 10:11:21;;;;;;;13.90;3.20;;;14.40;68.10;;;;;;20776;6773;117714;-76
2022/12/23 10:13:57;;;;;;;366.87;14.57;;;14.30;68.50;;;;;;20797;6766;117253;-75
2022/12/23 10:16:35;;;;;;;426.67;18.02;;;14.00;69.70;;;;;;20623;6761;339514;-76
2022/12/23 10:19:14;;;;;;;406.10;19.30;;;14.10;70.00;;;;;;20810;6768;118008;-79
2022/12/23 10:22:05;;;;;;;419.67;19.73;;;14.00;70.10;;;;;;20807;6756;117598;-76
2022/12/23 10:24:38;;;;;;;319.33;15.50;;;13.70;71.00;;;;;;20556;6761;311006;-74
2022/12/23 10:27:31;;;;;;;479.77;21.30;;;14.20;69.50;;;;;;20614;6755;309510;-75
2022/12/23 10:30:13;;;;;;;127.10;19.80;;;14.10;69.30;;;;;;20853;6748;115293;-76
2022/12/23 10:33:15;;;;;;;107.83;19.73;;;14.00;69.30;;;;;;20639;6753;306580;-75
2022/12/23 10:36:10;;;;;;;19.90;10.50;;;14.10;69.10;;;;;;20723;6747;117877;-76
2022/12/23 10:38:53;;;;;;;7.40;6.80;;;13.90;69.40;;;;;;20908;6738;117232;-75
2022/12/23 10:41:37;;;;;;;9.17;8.40;;;13.60;70.60;;;;;;20626;6753;277261;-75
2022/12/23 10:44:30;;;;;;;10.47;9.50;;;13.70;71.40;;;;;;20826;6753;117158;-75
2022/12/23 10:47:19;;;;;;;8.13;7.33;;;13.70;71.40;;;;;;20827;6760;117254;-76
2022/12/23 10:50:07;;;;;;;8.90;8.07;;;13.50;72.20;;;;;;20647;6751;339941;-74
2022/12/23 10:52:43;;;;;;;7.62;7.12;;;13.70;73.00;;;;;;20633;6759;307337;-75
2022/12/23 10:55:22;;;;;;;8.13;7.37;;;14.30;70.20;;;;;;20547;6747;314950;-76
2022/12/23 10:57:57;;;;;;;6.93;6.43;;;14.30;70.20;;;;;;20823;6762;117111;-75
2022/12/23 11:00:35;;;;;;;5.53;4.93;;;14.30;70.40;;;;;;20763;6777;117133;-75
2022/12/23 11:03:22;;;;;;;5.17;4.77;;;14.00;71.50;;;;;;20778;6768;117010;-74
2022/12/23 11:05:58;;;;;;;4.70;4.40;;;13.60;73.70;;;;;;20709;6750;117160;-75
2022/12/23 11:08:35;;;;;;;2.95;2.75;;;13.60;73.70;;;;;;20602;6771;309750;-74
2022/12/23 11:11:10;;;;;;;3.50;3.30;;;13.80;73.80;;;;;;20611;6761;277162;-73
2022/12/23 11:13:46;;;;;;;2.70;2.50;;;14.20;72.10;;;;;;20822;6762;117877;-74
2022/12/23 11:16:21;;;;;;;3.37;3.08;;;14.20;71.50;;;;;;20669;6747;308949;-74
2022/12/23 11:19:00;;;;;;;1.60;1.50;;;14.40;71.20;;;;;;20669;6747;277324;-73
2022/12/23 11:21:35;;;;;;;2.70;2.55;;;14.60;69.70;;;;;;20673;6747;308485;-73
2022/12/23 11:24:17;;;;;;;1.90;1.80;;;14.90;68.70;;;;;;20872;6733;116893;-73
2022/12/23 11:27:03;;;;;;;2.47;2.28;;;14.90;69.20;;;;;;20675;6748;278019;-71
2022/12/23 11:29:39;;;;;;;1.53;1.40;;;14.90;69.20;;;;;;20853;6764;117734;-72
2022/12/23 11:32:19;;;;;;;6.00;5.60;;;14.80;69.40;;;;;;20843;6759;117714;-74
2022/12/23 11:34:55;;;;;;;12.02;11.32;;;14.60;69.90;;;;;;20571;6751;311108;-73
2022/12/23 11:37:35;;;;;;;3.13;3.03;;;14.60;69.90;;;;;;20611;6762;277714;-74
2022/12/23 11:40:23;;;;;;;2.87;2.70;;;14.90;68.50;;;;;;20790;6777;117518;-74
2022/12/23 11:42:58;;;;;;;3.00;2.70;;;14.80;68.50;;;;;;20868;6753;117151;-72
2022/12/23 11:45:34;;;;;;;3.47;3.27;;;14.60;69.40;;;;;;20756;6753;117278;-74
2022/12/23 11:48:29;;;;;;;2.50;2.30;;;14.40;70.50;;;;;;20883;6750;116903;-73
2022/12/23 11:51:05;;;;;;;1.45;1.40;;;14.10;71.30;;;;;;20696;6732;280280;-73
2022/12/23 11:53:44;;;;;;;1.60;1.50;;;14.40;70.50;;;;;;20889;6747;117170;-71
2022/12/23 11:56:17;;;;;;;2.03;1.90;;;14.40;70.10;;;;;;20860;6753;117484;-75
2022/12/23 11:58:53;;;;;;;2.40;2.30;;;14.20;70.50;;;;;;20883;6747;117572;-72
2022/12/23 12:01:28;;;;;;;2.10;2.00;;;14.10;71.20;;;;;;20595;6753;317973;-73
2022/12/23 12:04:08;;;;;;;2.70;2.50;;;14.20;70.90;;;;;;20613;6747;281828;-74
2022/12/23 12:06:43;;;;;;;2.70;2.50;;;14.60;69.50;;;;;;20545;6775;307649;-71
2022/12/23 12:09:19;;;;;;;1.07;1.00;;;14.90;68.00;;;;;;20523;6773;281310;-74
2022/12/23 12:12:02;;;;;;;1.00;1.00;;;15.10;66.90;;;;;;20792;6772;117335;-72
2022/12/23 12:14:46;;;;;;;5.20;1.20;;;14.90;67.10;;;;;;20790;6757;118221;-72
2022/12/23 12:17:35;;;;;;;1.05;1.02;;;14.60;68.10;;;;;;20615;6762;308625;-70
2022/12/23 12:20:35;;;;;;;2.40;1.20;;;14.50;68.60;;;;;;20856;6758;118214;-70
2022/12/23 12:23:11;;;;;;;1.10;1.10;;;14.20;69.80;;;;;;20835;6757;117122;-72
2022/12/23 12:25:50;;;;;;;1.37;1.37;;;14.20;69.80;;;;;;20680;6764;117786;-72
2022/12/23 12:28:28;;;;;;;1.20;1.20;;;14.00;70.70;;;;;;20874;6747;118266;-71
2022/12/23 12:31:27;;;;;;;2.75;1.90;;;13.80;71.50;;;;;;20645;6748;305758;-72
2022/12/23 12:34:04;;;;;;;2.97;2.10;;;14.00;72.00;;;;;;20631;6747;310955;-72
2022/12/23 12:36:45;;;;;;;2.17;2.07;;;14.40;70.60;;;;;;20904;6789;117155;-71
2022/12/23 12:39:41;;;;;;;5.23;2.30;;;14.30;70.10;;;;;;20890;6741;118659;-72
2022/12/23 12:42:23;;;;;;;3.28;2.12;;;14.10;71.00;;;;;;20618;6753;287819;-73
2022/12/23 12:45:12;;;;;;;2.10;2.00;;;14.30;71.50;;;;;;20528;6753;340571;-72
2022/12/23 12:48:01;;;;;;;2.25;2.12;;;14.60;70.40;;;;;;20626;6751;306755;-74
2022/12/23 12:50:40;;;;;;;3.62;2.00;;;14.80;69.10;;;;;;20062;6805;299737;-73
2022/12/23 12:53:15;;;;;;;1.80;1.70;;;15.00;68.10;;;;;;20676;6733;306655;-72
2022/12/23 12:55:51;;;;;;;1.60;1.50;;;15.20;67.60;;;;;;20718;6751;119296;-72
2022/12/23 12:58:28;;;;;;;1.63;1.40;;;14.90;68.00;;;;;;20799;6780;118284;-76
2022/12/23 13:01:16;;;;;;;5.80;1.30;;;14.60;69.20;;;;;;20825;6777;116919;-71
2022/12/23 13:04:22;;;;;;;1.60;1.50;;;14.30;70.50;;;;;;20833;6777;117046;-69
2022/12/23 13:07:00;;;;;;;2.53;1.70;;;14.10;71.80;;;;;;20690;6751;306335;-68
2022/12/23 13:09:52;;;;;;;2.40;1.60;;;14.30;71.70;;;;;;20843;6765;117461;-69
2022/12/23 13:12:38;;;;;;;1.70;1.57;;;14.30;71.40;;;;;;20875;6751;116875;-69
2022/12/23 13:15:28;;;;;;;3.20;1.90;;;14.30;72.40;;;;;;20556;6747;289953;-69
2022/12/23 13:18:10;;;;;;;1.70;1.60;;;14.30;71.80;;;;;;20664;6747;336015;-73
2022/12/23 13:20:59;;;;;;;2.10;1.97;;;14.70;70.10;;;;;;20708;6732;305959;-71
2022/12/23 13:24:02;;;;;;;3.80;2.07;;;15.20;66.60;;;;;;20705;6738;305537;-70
2022/12/23 13:26:37;;;;;;;1.37;1.37;;;15.20;66.60;;;;;;20932;6738;117486;-70
2022/12/23 13:29:33;;;;;;;1.40;1.30;;;15.00;67.30;;;;;;20795;6770;117185;-69
2022/12/23 13:32:48;;;;;;;2.17;1.93;;;14.60;68.40;;;;;;20838;6762;117512;-70
2022/12/23 13:35:32;;;;;;;5.27;1.70;;;14.30;69.60;;;;;;20740;6753;117822;-72
2022/12/23 13:38:23;;;;;;;1.70;1.47;;;14.10;70.60;;;;;;20637;6753;279233;-69
2022/12/23 13:41:08;;;;;;;1.53;1.00;;;14.20;70.60;;;;;;20925;6739;119274;-71
2022/12/23 13:43:54;;;;;;;1.42;1.30;;;14.10;70.30;;;;;;20723;6739;337590;-69
2022/12/23 13:46:40;;;;;;;1.20;1.20;;;14.30;69.10;;;;;;20910;6739;116879;-69
2022/12/23 13:49:55;;;;;;;1.40;1.30;;;14.30;69.00;;;;;;20592;6765;277163;-68
2022/12/23 13:52:53;;;;;;;3.33;1.20;;;14.40;68.10;;;;;;20803;6771;116950;-71
2022/12/23 13:56:01;;;;;;;1.23;1.12;;;14.30;68.30;;;;;;20149;6765;312601;-69
2022/12/23 13:58:37;;;;;;;1.30;1.20;;;14.40;68.00;;;;;;20601;6765;279750;-71
2022/12/23 14:01:13;;;;;;;2.10;0.90;;;14.60;66.80;;;;;;20798;6772;121433;-70
2022/12/23 14:03:49;;;;;;;1.20;1.00;;;14.60;66.80;;;;;;20850;6762;117005;-71